sensor_id;sensor_type;location;lat;lon;timestamp;P1;durP1;ratioP1;P2;durP2;ratioP2
59189;SDS011;50749;51.636;4.948;2023-03-01T00:01:26;3.33;;;1.77;;
59189;SDS011;50749;51.636;4.948;2023-03-01T00:03:54;5.18;;;1.80;;
59189;SDS011;50749;51.636;4.948;2023-03-01T00:06:21;3.78;;;1.55;;
59189;SDS011;50749;51.636;4.948;2023-03-01T00:08:47;2.63;;;1.90;;
59189;SDS011;50749;51.636;4.948;2023-03-01T00:11:23;2.80;;;1.70;;
59189;SDS011;50749;51.636;4.948;2023-03-01T00:13:52;3.05;;;1.85;;
59189;SDS011;50749;51.636;4.948;2023-03-01T00:16:21;2.72;;;1.52;;
59189;SDS011;50749;51.636;4.948;2023-03-01T00:18:48;5.78;;;1.70;;
59189;SDS011;50749;51.636;4.948;2023-03-01T00:21:16;2.92;;;1.50;;
59189;SDS011;50749;51.636;4.948;2023-03-01T00:23:42;2.72;;;1.58;;
59189;SDS011;50749;51.636;4.948;2023-03-01T00:26:09;2.58;;;1.52;;
59189;SDS011;50749;51.636;4.948;2023-03-01T00:28:36;3.35;;;1.60;;
59189;SDS011;50749;51.636;4.948;2023-03-01T00:31:03;5.65;;;1.50;;
59189;SDS011;50749;51.636;4.948;2023-03-01T00:33:30;3.55;;;1.52;;
59189;SDS011;50749;51.636;4.948;2023-03-01T00:35:57;2.88;;;1.52;;
59189;SDS011;50749;51.636;4.948;2023-03-01T00:38:24;2.55;;;1.63;;
59189;SDS011;50749;51.636;4.948;2023-03-01T00:40:50;2.65;;;1.55;;
59189;SDS011;50749;51.636;4.948;2023-03-01T00:43:15;3.25;;;1.73;;
59189;SDS011;50749;51.636;4.948;2023-03-01T00:45:41;3.55;;;1.70;;
59189;SDS011;50749;51.636;4.948;2023-03-01T00:48:07;1.77;;;1.38;;
59189;SDS011;50749;51.636;4.948;2023-03-01T00:50:33;2.20;;;1.55;;
59189;SDS011;50749;51.636;4.948;2023-03-01T00:52:59;2.50;;;1.30;;
59189;SDS011;50749;51.636;4.948;2023-03-01T00:55:25;3.78;;;1.60;;
59189;SDS011;50749;51.636;4.948;2023-03-01T00:57:51;3.30;;;1.40;;
59189;SDS011;50749;51.636;4.948;2023-03-01T01:00:18;2.92;;;1.65;;
59189;SDS011;50749;51.636;4.948;2023-03-01T01:02:44;3.90;;;1.75;;
59189;SDS011;50749;51.636;4.948;2023-03-01T01:05:11;2.50;;;1.77;;
59189;SDS011;50749;51.636;4.948;2023-03-01T01:07:37;2.40;;;1.63;;
59189;SDS011;50749;51.636;4.948;2023-03-01T01:10:04;2.22;;;1.40;;
59189;SDS011;50749;51.636;4.948;2023-03-01T01:12:30;2.35;;;1.35;;
59189;SDS011;50749;51.636;4.948;2023-03-01T01:14:57;2.95;;;1.60;;
59189;SDS011;50749;51.636;4.948;2023-03-01T01:17:22;2.38;;;1.50;;
59189;SDS011;50749;51.636;4.948;2023-03-01T01:19:48;3.17;;;1.83;;
59189;SDS011;50749;51.636;4.948;2023-03-01T01:22:14;3.28;;;1.67;;
59189;SDS011;50749;51.636;4.948;2023-03-01T01:24:40;4.32;;;1.80;;
59189;SDS011;50749;51.636;4.948;2023-03-01T01:27:06;3.08;;;1.83;;
59189;SDS011;50749;51.636;4.948;2023-03-01T01:29:32;2.42;;;1.40;;
59189;SDS011;50749;51.636;4.948;2023-03-01T01:31:58;3.47;;;1.70;;
59189;SDS011;50749;51.636;4.948;2023-03-01T01:34:24;3.00;;;1.75;;
59189;SDS011;50749;51.636;4.948;2023-03-01T01:36:51;2.33;;;1.45;;
59189;SDS011;50749;51.636;4.948;2023-03-01T01:39:21;4.03;;;1.90;;
59189;SDS011;50749;51.636;4.948;2023-03-01T01:41:47;3.03;;;1.58;;
59189;SDS011;50749;51.636;4.948;2023-03-01T01:46:45;2.63;;;1.58;;
59189;SDS011;50749;51.636;4.948;2023-03-01T01:52:13;2.97;;;1.75;;
59189;SDS011;50749;51.636;4.948;2023-03-01T01:54:44;3.03;;;1.70;;
59189;SDS011;50749;51.636;4.948;2023-03-01T01:57:43;2.83;;;1.45;;
59189;SDS011;50749;51.636;4.948;2023-03-01T02:00:13;2.65;;;1.55;;
59189;SDS011;50749;51.636;4.948;2023-03-01T02:02:42;2.72;;;1.55;;
59189;SDS011;50749;51.636;4.948;2023-03-01T02:05:15;2.40;;;1.40;;
59189;SDS011;50749;51.636;4.948;2023-03-01T02:07:49;2.42;;;1.40;;
59189;SDS011;50749;51.636;4.948;2023-03-01T02:10:15;2.15;;;1.52;;
59189;SDS011;50749;51.636;4.948;2023-03-01T02:12:41;3.13;;;1.85;;
59189;SDS011;50749;51.636;4.948;2023-03-01T02:15:08;4.70;;;1.60;;
59189;SDS011;50749;51.636;4.948;2023-03-01T02:17:34;3.05;;;1.52;;
59189;SDS011;50749;51.636;4.948;2023-03-01T02:22:48;3.17;;;1.73;;
59189;SDS011;50749;51.636;4.948;2023-03-01T02:28:01;2.28;;;1.23;;
59189;SDS011;50749;51.636;4.948;2023-03-01T02:30:49;3.85;;;1.65;;
59189;SDS011;50749;51.636;4.948;2023-03-01T02:33:54;3.35;;;1.77;;
59189;SDS011;50749;51.636;4.948;2023-03-01T02:36:23;3.08;;;1.67;;
59189;SDS011;50749;51.636;4.948;2023-03-01T02:38:52;3.20;;;1.50;;
59189;SDS011;50749;51.636;4.948;2023-03-01T02:41:21;3.13;;;1.67;;
59189;SDS011;50749;51.636;4.948;2023-03-01T02:43:48;3.13;;;1.88;;
59189;SDS011;50749;51.636;4.948;2023-03-01T02:46:15;2.45;;;1.38;;
59189;SDS011;50749;51.636;4.948;2023-03-01T02:48:45;3.90;;;1.63;;
59189;SDS011;50749;51.636;4.948;2023-03-01T02:51:25;2.65;;;1.50;;
59189;SDS011;50749;51.636;4.948;2023-03-01T02:56:33;4.63;;;2.20;;
59189;SDS011;50749;51.636;4.948;2023-03-01T02:58:59;2.47;;;1.90;;
59189;SDS011;50749;51.636;4.948;2023-03-01T03:01:26;3.42;;;1.58;;
59189;SDS011;50749;51.636;4.948;2023-03-01T03:04:05;3.55;;;1.92;;
59189;SDS011;50749;51.636;4.948;2023-03-01T03:06:33;2.50;;;1.70;;
59189;SDS011;50749;51.636;4.948;2023-03-01T03:08:59;4.10;;;2.17;;
59189;SDS011;50749;51.636;4.948;2023-03-01T03:11:25;4.40;;;1.80;;
59189;SDS011;50749;51.636;4.948;2023-03-01T03:13:51;4.00;;;2.05;;
59189;SDS011;50749;51.636;4.948;2023-03-01T03:16:18;3.58;;;2.15;;
59189;SDS011;50749;51.636;4.948;2023-03-01T03:18:44;3.35;;;1.77;;
59189;SDS011;50749;51.636;4.948;2023-03-01T03:21:11;2.78;;;1.60;;
59189;SDS011;50749;51.636;4.948;2023-03-01T03:23:38;2.90;;;1.77;;
59189;SDS011;50749;51.636;4.948;2023-03-01T03:26:04;2.90;;;1.75;;
59189;SDS011;50749;51.636;4.948;2023-03-01T03:28:31;3.28;;;1.90;;
59189;SDS011;50749;51.636;4.948;2023-03-01T03:30:57;3.80;;;1.73;;
59189;SDS011;50749;51.636;4.948;2023-03-01T03:33:23;4.90;;;1.88;;
59189;SDS011;50749;51.636;4.948;2023-03-01T03:35:50;3.92;;;2.03;;
59189;SDS011;50749;51.636;4.948;2023-03-01T03:38:18;3.13;;;1.70;;
59189;SDS011;50749;51.636;4.948;2023-03-01T03:40:48;2.30;;;1.50;;
59189;SDS011;50749;51.636;4.948;2023-03-01T03:43:17;2.92;;;1.88;;
59189;SDS011;50749;51.636;4.948;2023-03-01T03:45:48;4.65;;;1.63;;
59189;SDS011;50749;51.636;4.948;2023-03-01T03:48:15;4.22;;;1.83;;
59189;SDS011;50749;51.636;4.948;2023-03-01T03:50:46;3.63;;;1.60;;
59189;SDS011;50749;51.636;4.948;2023-03-01T03:53:14;3.45;;;1.67;;
59189;SDS011;50749;51.636;4.948;2023-03-01T03:55:40;3.33;;;1.90;;
59189;SDS011;50749;51.636;4.948;2023-03-01T03:58:07;4.05;;;1.95;;
59189;SDS011;50749;51.636;4.948;2023-03-01T04:00:36;3.38;;;1.80;;
59189;SDS011;50749;51.636;4.948;2023-03-01T04:03:06;2.72;;;1.55;;
59189;SDS011;50749;51.636;4.948;2023-03-01T04:05:32;1.98;;;1.10;;
59189;SDS011;50749;51.636;4.948;2023-03-01T04:07:58;1.48;;;0.90;;
59189;SDS011;50749;51.636;4.948;2023-03-01T04:10:33;1.67;;;0.93;;
59189;SDS011;50749;51.636;4.948;2023-03-01T04:13:02;3.38;;;1.27;;
59189;SDS011;50749;51.636;4.948;2023-03-01T04:15:28;2.17;;;1.20;;
59189;SDS011;50749;51.636;4.948;2023-03-01T04:17:54;2.53;;;1.02;;
59189;SDS011;50749;51.636;4.948;2023-03-01T04:20:22;2.78;;;1.30;;
59189;SDS011;50749;51.636;4.948;2023-03-01T04:23:00;2.30;;;1.20;;
59189;SDS011;50749;51.636;4.948;2023-03-01T04:25:42;2.30;;;1.38;;
59189;SDS011;50749;51.636;4.948;2023-03-01T04:28:11;1.92;;;0.98;;
59189;SDS011;50749;51.636;4.948;2023-03-01T04:30:38;1.48;;;0.90;;
59189;SDS011;50749;51.636;4.948;2023-03-01T04:33:04;2.25;;;0.90;;
59189;SDS011;50749;51.636;4.948;2023-03-01T04:35:31;1.85;;;1.10;;
59189;SDS011;50749;51.636;4.948;2023-03-01T04:37:57;1.98;;;1.15;;
59189;SDS011;50749;51.636;4.948;2023-03-01T04:40:24;1.83;;;1.00;;
59189;SDS011;50749;51.636;4.948;2023-03-01T04:42:50;3.55;;;1.20;;
59189;SDS011;50749;51.636;4.948;2023-03-01T04:45:16;2.28;;;1.05;;
59189;SDS011;50749;51.636;4.948;2023-03-01T04:47:43;2.13;;;1.08;;
59189;SDS011;50749;51.636;4.948;2023-03-01T04:50:12;2.10;;;1.00;;
59189;SDS011;50749;51.636;4.948;2023-03-01T04:52:40;2.05;;;1.00;;
59189;SDS011;50749;51.636;4.948;2023-03-01T04:55:06;1.88;;;0.90;;
59189;SDS011;50749;51.636;4.948;2023-03-01T04:57:33;1.50;;;0.90;;
59189;SDS011;50749;51.636;4.948;2023-03-01T04:59:59;2.38;;;1.20;;
59189;SDS011;50749;51.636;4.948;2023-03-01T05:02:24;1.67;;;1.10;;
59189;SDS011;50749;51.636;4.948;2023-03-01T05:04:50;1.75;;;0.80;;
59189;SDS011;50749;51.636;4.948;2023-03-01T05:07:16;2.13;;;1.02;;
59189;SDS011;50749;51.636;4.948;2023-03-01T05:09:45;1.95;;;0.98;;
59189;SDS011;50749;51.636;4.948;2023-03-01T05:12:12;1.30;;;1.00;;
59189;SDS011;50749;51.636;4.948;2023-03-01T05:14:38;1.67;;;0.90;;
59189;SDS011;50749;51.636;4.948;2023-03-01T05:17:05;2.95;;;1.20;;
59189;SDS011;50749;51.636;4.948;2023-03-01T05:19:31;2.00;;;1.00;;
59189;SDS011;50749;51.636;4.948;2023-03-01T05:21:58;1.30;;;0.80;;
59189;SDS011;50749;51.636;4.948;2023-03-01T05:24:31;2.13;;;1.30;;
59189;SDS011;50749;51.636;4.948;2023-03-01T05:26:58;1.80;;;0.88;;
59189;SDS011;50749;51.636;4.948;2023-03-01T05:29:26;2.25;;;1.10;;
59189;SDS011;50749;51.636;4.948;2023-03-01T05:31:57;1.63;;;0.80;;
59189;SDS011;50749;51.636;4.948;2023-03-01T05:34:25;1.50;;;0.85;;
59189;SDS011;50749;51.636;4.948;2023-03-01T05:36:52;1.73;;;0.98;;
59189;SDS011;50749;51.636;4.948;2023-03-01T05:39:19;1.77;;;0.90;;
59189;SDS011;50749;51.636;4.948;2023-03-01T05:41:52;1.77;;;0.90;;
59189;SDS011;50749;51.636;4.948;2023-03-01T05:44:20;1.13;;;0.80;;
59189;SDS011;50749;51.636;4.948;2023-03-01T05:46:46;1.40;;;0.95;;
59189;SDS011;50749;51.636;4.948;2023-03-01T05:49:13;1.67;;;1.00;;
59189;SDS011;50749;51.636;4.948;2023-03-01T05:51:39;1.98;;;0.82;;
59189;SDS011;50749;51.636;4.948;2023-03-01T05:54:07;1.95;;;1.10;;
59189;SDS011;50749;51.636;4.948;2023-03-01T05:56:33;1.75;;;1.20;;
59189;SDS011;50749;51.636;4.948;2023-03-01T05:59:00;2.53;;;1.20;;
59189;SDS011;50749;51.636;4.948;2023-03-01T06:01:26;2.72;;;0.95;;
59189;SDS011;50749;51.636;4.948;2023-03-01T06:03:53;1.63;;;1.02;;
59189;SDS011;50749;51.636;4.948;2023-03-01T06:06:19;2.03;;;1.25;;
59189;SDS011;50749;51.636;4.948;2023-03-01T06:08:45;4.07;;;0.85;;
59189;SDS011;50749;51.636;4.948;2023-03-01T06:11:10;1.67;;;0.90;;
59189;SDS011;50749;51.636;4.948;2023-03-01T06:13:36;2.10;;;1.00;;
59189;SDS011;50749;51.636;4.948;2023-03-01T06:16:04;2.28;;;1.08;;
59189;SDS011;50749;51.636;4.948;2023-03-01T06:18:31;4.45;;;1.23;;
59189;SDS011;50749;51.636;4.948;2023-03-01T06:20:57;1.55;;;0.90;;
59189;SDS011;50749;51.636;4.948;2023-03-01T06:23:23;1.50;;;1.13;;
59189;SDS011;50749;51.636;4.948;2023-03-01T06:25:50;1.95;;;0.90;;
59189;SDS011;50749;51.636;4.948;2023-03-01T06:28:16;2.75;;;1.10;;
59189;SDS011;50749;51.636;4.948;2023-03-01T06:30:42;2.10;;;1.30;;
59189;SDS011;50749;51.636;4.948;2023-03-01T06:33:08;2.20;;;1.10;;
59189;SDS011;50749;51.636;4.948;2023-03-01T06:35:34;1.83;;;0.90;;
59189;SDS011;50749;51.636;4.948;2023-03-01T06:38:00;1.48;;;0.85;;
59189;SDS011;50749;51.636;4.948;2023-03-01T06:40:27;4.82;;;1.13;;
59189;SDS011;50749;51.636;4.948;2023-03-01T06:42:53;1.60;;;1.20;;
59189;SDS011;50749;51.636;4.948;2023-03-01T06:45:20;2.45;;;0.90;;
59189;SDS011;50749;51.636;4.948;2023-03-01T06:47:46;1.60;;;0.80;;
59189;SDS011;50749;51.636;4.948;2023-03-01T06:50:13;2.03;;;1.35;;
59189;SDS011;50749;51.636;4.948;2023-03-01T06:52:40;1.70;;;0.90;;
59189;SDS011;50749;51.636;4.948;2023-03-01T06:55:05;3.25;;;1.05;;
59189;SDS011;50749;51.636;4.948;2023-03-01T06:57:32;2.10;;;0.88;;
59189;SDS011;50749;51.636;4.948;2023-03-01T06:59:58;2.42;;;0.85;;
59189;SDS011;50749;51.636;4.948;2023-03-01T07:02:24;1.92;;;1.05;;
59189;SDS011;50749;51.636;4.948;2023-03-01T07:04:50;2.15;;;1.20;;
59189;SDS011;50749;51.636;4.948;2023-03-01T07:07:16;1.70;;;0.90;;
59189;SDS011;50749;51.636;4.948;2023-03-01T07:09:44;2.63;;;1.00;;
59189;SDS011;50749;51.636;4.948;2023-03-01T07:12:11;5.25;;;1.10;;
59189;SDS011;50749;51.636;4.948;2023-03-01T07:14:36;2.05;;;1.25;;
59189;SDS011;50749;51.636;4.948;2023-03-01T07:17:02;1.85;;;1.30;;
59189;SDS011;50749;51.636;4.948;2023-03-01T07:19:28;1.33;;;0.90;;
59189;SDS011;50749;51.636;4.948;2023-03-01T07:21:54;1.58;;;1.00;;
59189;SDS011;50749;51.636;4.948;2023-03-01T07:24:21;1.58;;;0.98;;
59189;SDS011;50749;51.636;4.948;2023-03-01T07:26:48;1.75;;;0.95;;
59189;SDS011;50749;51.636;4.948;2023-03-01T07:29:15;3.67;;;1.23;;
59189;SDS011;50749;51.636;4.948;2023-03-01T07:31:41;2.95;;;1.08;;
59189;SDS011;50749;51.636;4.948;2023-03-01T07:34:07;3.53;;;1.58;;
59189;SDS011;50749;51.636;4.948;2023-03-01T07:36:33;2.67;;;1.40;;
59189;SDS011;50749;51.636;4.948;2023-03-01T07:38:59;4.65;;;1.17;;
59189;SDS011;50749;51.636;4.948;2023-03-01T07:41:27;2.00;;;0.95;;
59189;SDS011;50749;51.636;4.948;2023-03-01T07:43:53;3.28;;;1.23;;
59189;SDS011;50749;51.636;4.948;2023-03-01T07:46:19;3.50;;;1.30;;
59189;SDS011;50749;51.636;4.948;2023-03-01T07:48:45;2.70;;;1.30;;
59189;SDS011;50749;51.636;4.948;2023-03-01T07:51:12;2.72;;;1.10;;
59189;SDS011;50749;51.636;4.948;2023-03-01T07:53:38;2.00;;;1.10;;
59189;SDS011;50749;51.636;4.948;2023-03-01T07:56:05;1.77;;;1.10;;
59189;SDS011;50749;51.636;4.948;2023-03-01T07:58:36;4.65;;;1.58;;
59189;SDS011;50749;51.636;4.948;2023-03-01T08:01:04;3.10;;;1.30;;
59189;SDS011;50749;51.636;4.948;2023-03-01T08:03:31;3.17;;;1.50;;
59189;SDS011;50749;51.636;4.948;2023-03-01T08:06:01;1.58;;;0.98;;
59189;SDS011;50749;51.636;4.948;2023-03-01T08:08:28;2.35;;;1.08;;
59189;SDS011;50749;51.636;4.948;2023-03-01T08:10:58;3.35;;;1.20;;
59189;SDS011;50749;51.636;4.948;2023-03-01T08:13:25;2.17;;;1.35;;
59189;SDS011;50749;51.636;4.948;2023-03-01T08:15:52;3.75;;;1.30;;
59189;SDS011;50749;51.636;4.948;2023-03-01T08:18:18;1.70;;;1.02;;
59189;SDS011;50749;51.636;4.948;2023-03-01T08:20:46;3.60;;;1.58;;
59189;SDS011;50749;51.636;4.948;2023-03-01T08:23:12;2.15;;;1.02;;
59189;SDS011;50749;51.636;4.948;2023-03-01T08:25:38;2.65;;;1.13;;
59189;SDS011;50749;51.636;4.948;2023-03-01T08:28:04;2.30;;;1.13;;
59189;SDS011;50749;51.636;4.948;2023-03-01T08:30:30;2.60;;;1.45;;
59189;SDS011;50749;51.636;4.948;2023-03-01T08:32:56;3.25;;;1.23;;
59189;SDS011;50749;51.636;4.948;2023-03-01T08:35:23;1.88;;;0.90;;
59189;SDS011;50749;51.636;4.948;2023-03-01T08:37:48;2.30;;;1.10;;
59189;SDS011;50749;51.636;4.948;2023-03-01T08:40:14;2.97;;;1.33;;
59189;SDS011;50749;51.636;4.948;2023-03-01T08:42:40;1.83;;;1.17;;
59189;SDS011;50749;51.636;4.948;2023-03-01T08:45:08;1.75;;;1.00;;
59189;SDS011;50749;51.636;4.948;2023-03-01T08:47:35;1.92;;;0.90;;
59189;SDS011;50749;51.636;4.948;2023-03-01T08:50:01;3.08;;;1.67;;
59189;SDS011;50749;51.636;4.948;2023-03-01T08:52:28;13.35;;;1.35;;
59189;SDS011;50749;51.636;4.948;2023-03-01T08:54:55;3.35;;;1.00;;
59189;SDS011;50749;51.636;4.948;2023-03-01T08:57:21;1.77;;;1.00;;
59189;SDS011;50749;51.636;4.948;2023-03-01T08:59:47;2.00;;;1.20;;
59189;SDS011;50749;51.636;4.948;2023-03-01T09:02:14;2.97;;;1.15;;
59189;SDS011;50749;51.636;4.948;2023-03-01T09:04:42;1.95;;;1.20;;
59189;SDS011;50749;51.636;4.948;2023-03-01T09:07:09;1.30;;;0.88;;
59189;SDS011;50749;51.636;4.948;2023-03-01T09:09:36;1.55;;;0.88;;
59189;SDS011;50749;51.636;4.948;2023-03-01T09:12:02;1.98;;;1.00;;
59189;SDS011;50749;51.636;4.948;2023-03-01T09:14:29;3.15;;;1.17;;
59189;SDS011;50749;51.636;4.948;2023-03-01T09:16:55;1.92;;;1.00;;
59189;SDS011;50749;51.636;4.948;2023-03-01T09:19:21;2.17;;;1.15;;
59189;SDS011;50749;51.636;4.948;2023-03-01T09:21:47;2.35;;;0.85;;
59189;SDS011;50749;51.636;4.948;2023-03-01T09:24:19;1.75;;;1.05;;
59189;SDS011;50749;51.636;4.948;2023-03-01T09:26:46;2.20;;;1.00;;
59189;SDS011;50749;51.636;4.948;2023-03-01T09:29:13;1.52;;;0.90;;
59189;SDS011;50749;51.636;4.948;2023-03-01T09:31:40;1.02;;;0.68;;
59189;SDS011;50749;51.636;4.948;2023-03-01T09:34:07;2.58;;;1.08;;
59189;SDS011;50749;51.636;4.948;2023-03-01T09:36:32;1.75;;;0.93;;
59189;SDS011;50749;51.636;4.948;2023-03-01T09:38:59;1.55;;;0.80;;
59189;SDS011;50749;51.636;4.948;2023-03-01T09:44:01;1.52;;;0.90;;
59189;SDS011;50749;51.636;4.948;2023-03-01T09:46:36;1.30;;;0.80;;
59189;SDS011;50749;51.636;4.948;2023-03-01T09:49:17;1.30;;;0.93;;
59189;SDS011;50749;51.636;4.948;2023-03-01T09:51:57;1.55;;;0.80;;
59189;SDS011;50749;51.636;4.948;2023-03-01T09:54:45;3.50;;;1.23;;
59189;SDS011;50749;51.636;4.948;2023-03-01T09:57:15;2.38;;;1.30;;
59189;SDS011;50749;51.636;4.948;2023-03-01T10:02:28;1.52;;;0.93;;
59189;SDS011;50749;51.636;4.948;2023-03-01T10:07:55;1.75;;;1.00;;
59189;SDS011;50749;51.636;4.948;2023-03-01T10:10:40;1.48;;;1.00;;
59189;SDS011;50749;51.636;4.948;2023-03-01T10:16:26;2.88;;;1.00;;
59189;SDS011;50749;51.636;4.948;2023-03-01T10:19:00;2.40;;;0.88;;
59189;SDS011;50749;51.636;4.948;2023-03-01T10:21:29;1.80;;;0.82;;
59189;SDS011;50749;51.636;4.948;2023-03-01T10:23:59;3.45;;;1.48;;
59189;SDS011;50749;51.636;4.948;2023-03-01T10:26:43;4.03;;;1.52;;
59189;SDS011;50749;51.636;4.948;2023-03-01T10:29:13;3.03;;;1.20;;
59189;SDS011;50749;51.636;4.948;2023-03-01T10:31:41;1.73;;;1.17;;
59189;SDS011;50749;51.636;4.948;2023-03-01T10:34:14;2.25;;;1.38;;
59189;SDS011;50749;51.636;4.948;2023-03-01T10:37:04;2.72;;;1.45;;
59189;SDS011;50749;51.636;4.948;2023-03-01T10:39:35;2.30;;;1.17;;
59189;SDS011;50749;51.636;4.948;2023-03-01T10:42:02;2.58;;;1.20;;
59189;SDS011;50749;51.636;4.948;2023-03-01T10:44:51;2.00;;;1.17;;
59189;SDS011;50749;51.636;4.948;2023-03-01T10:47:21;1.95;;;1.15;;
59189;SDS011;50749;51.636;4.948;2023-03-01T10:49:56;2.65;;;1.30;;
59189;SDS011;50749;51.636;4.948;2023-03-01T10:52:34;3.30;;;1.25;;
59189;SDS011;50749;51.636;4.948;2023-03-01T10:58:06;1.83;;;1.10;;
59189;SDS011;50749;51.636;4.948;2023-03-01T11:00:55;1.63;;;1.00;;
59189;SDS011;50749;51.636;4.948;2023-03-01T11:03:26;4.03;;;1.40;;
59189;SDS011;50749;51.636;4.948;2023-03-01T11:05:57;2.20;;;1.15;;
59189;SDS011;50749;51.636;4.948;2023-03-01T11:13:37;2.85;;;1.20;;
59189;SDS011;50749;51.636;4.948;2023-03-01T11:16:14;2.20;;;1.10;;
59189;SDS011;50749;51.636;4.948;2023-03-01T11:21:34;2.38;;;1.10;;
59189;SDS011;50749;51.636;4.948;2023-03-01T11:24:05;3.75;;;1.10;;
59189;SDS011;50749;51.636;4.948;2023-03-01T11:26:36;1.70;;;1.10;;
59189;SDS011;50749;51.636;4.948;2023-03-01T11:29:07;2.78;;;0.90;;
59189;SDS011;50749;51.636;4.948;2023-03-01T11:31:43;5.07;;;1.13;;
59189;SDS011;50749;51.636;4.948;2023-03-01T11:34:13;2.80;;;1.15;;
59189;SDS011;50749;51.636;4.948;2023-03-01T11:36:49;2.10;;;0.95;;
59189;SDS011;50749;51.636;4.948;2023-03-01T11:39:31;2.15;;;1.25;;
59189;SDS011;50749;51.636;4.948;2023-03-01T11:44:44;2.13;;;1.08;;
59189;SDS011;50749;51.636;4.948;2023-03-01T12:27:30;3.33;;;1.00;;
59189;SDS011;50749;51.636;4.948;2023-03-01T12:41:48;2.13;;;1.08;;
59189;SDS011;50749;51.636;4.948;2023-03-01T12:44:41;2.50;;;1.00;;
59189;SDS011;50749;51.636;4.948;2023-03-01T12:53:00;3.80;;;1.30;;
59189;SDS011;50749;51.636;4.948;2023-03-01T12:55:29;4.50;;;0.88;;
59189;SDS011;50749;51.636;4.948;2023-03-01T13:00:30;1.77;;;0.88;;
59189;SDS011;50749;51.636;4.948;2023-03-01T13:06:15;2.83;;;1.05;;
59189;SDS011;50749;51.636;4.948;2023-03-01T13:08:58;3.03;;;1.17;;
59189;SDS011;50749;51.636;4.948;2023-03-01T13:11:41;3.70;;;1.10;;
59189;SDS011;50749;51.636;4.948;2023-03-01T13:14:50;3.05;;;0.80;;
59189;SDS011;50749;51.636;4.948;2023-03-01T13:16:57;1.85;;;0.70;;
59189;SDS011;50749;51.636;4.948;2023-03-01T13:21:50;1.42;;;0.93;;
59189;SDS011;50749;51.636;4.948;2023-03-01T13:24:29;6.75;;;1.10;;
59189;SDS011;50749;51.636;4.948;2023-03-01T13:29:32;2.70;;;1.02;;
59189;SDS011;50749;51.636;4.948;2023-03-01T13:37:44;4.03;;;0.88;;
59189;SDS011;50749;51.636;4.948;2023-03-01T13:42:47;1.30;;;1.00;;
59189;SDS011;50749;51.636;4.948;2023-03-01T13:45:18;1.00;;;0.82;;
59189;SDS011;50749;51.636;4.948;2023-03-01T13:47:57;1.50;;;0.85;;
59189;SDS011;50749;51.636;4.948;2023-03-01T13:50:28;1.70;;;1.00;;
59189;SDS011;50749;51.636;4.948;2023-03-01T13:53:03;2.63;;;0.98;;
59189;SDS011;50749;51.636;4.948;2023-03-01T13:55:36;3.10;;;1.00;;
59189;SDS011;50749;51.636;4.948;2023-03-01T13:58:24;3.35;;;0.98;;
59189;SDS011;50749;51.636;4.948;2023-03-01T14:01:04;2.90;;;1.38;;
59189;SDS011;50749;51.636;4.948;2023-03-01T14:03:33;1.80;;;1.10;;
59189;SDS011;50749;51.636;4.948;2023-03-01T14:06:07;1.45;;;0.90;;
59189;SDS011;50749;51.636;4.948;2023-03-01T14:08:45;2.35;;;1.00;;
59189;SDS011;50749;51.636;4.948;2023-03-01T14:19:57;2.00;;;1.10;;
59189;SDS011;50749;51.636;4.948;2023-03-01T14:22:27;2.35;;;0.70;;
59189;SDS011;50749;51.636;4.948;2023-03-01T14:24:55;4.68;;;1.10;;
59189;SDS011;50749;51.636;4.948;2023-03-01T14:27:28;1.80;;;0.90;;
59189;SDS011;50749;51.636;4.948;2023-03-01T14:30:00;2.53;;;0.70;;
59189;SDS011;50749;51.636;4.948;2023-03-01T14:32:29;1.90;;;0.70;;
59189;SDS011;50749;51.636;4.948;2023-03-01T14:34:58;1.75;;;0.70;;
59189;SDS011;50749;51.636;4.948;2023-03-01T14:37:26;1.27;;;0.70;;
59189;SDS011;50749;51.636;4.948;2023-03-01T14:39:58;2.58;;;0.90;;
59189;SDS011;50749;51.636;4.948;2023-03-01T14:42:29;1.83;;;1.10;;
59189;SDS011;50749;51.636;4.948;2023-03-01T14:45:00;2.92;;;0.98;;
59189;SDS011;50749;51.636;4.948;2023-03-01T14:47:29;2.92;;;0.93;;
59189;SDS011;50749;51.636;4.948;2023-03-01T14:52:45;1.35;;;0.70;;
59189;SDS011;50749;51.636;4.948;2023-03-01T14:55:20;2.85;;;0.93;;
59189;SDS011;50749;51.636;4.948;2023-03-01T14:57:51;1.90;;;0.88;;
59189;SDS011;50749;51.636;4.948;2023-03-01T15:00:19;1.60;;;0.80;;
59189;SDS011;50749;51.636;4.948;2023-03-01T15:02:47;1.50;;;0.80;;
59189;SDS011;50749;51.636;4.948;2023-03-01T15:05:15;1.75;;;0.80;;
59189;SDS011;50749;51.636;4.948;2023-03-01T15:07:46;2.15;;;0.68;;
59189;SDS011;50749;51.636;4.948;2023-03-01T15:10:22;2.83;;;0.80;;
59189;SDS011;50749;51.636;4.948;2023-03-01T15:12:52;1.55;;;0.60;;
59189;SDS011;50749;51.636;4.948;2023-03-01T15:15:26;3.15;;;0.82;;
59189;SDS011;50749;51.636;4.948;2023-03-01T15:18:00;1.88;;;1.00;;
59189;SDS011;50749;51.636;4.948;2023-03-01T15:20:28;1.20;;;0.70;;
59189;SDS011;50749;51.636;4.948;2023-03-01T15:22:57;1.40;;;0.80;;
59189;SDS011;50749;51.636;4.948;2023-03-01T15:25:26;1.33;;;0.60;;
59189;SDS011;50749;51.636;4.948;2023-03-01T15:27:54;1.27;;;0.70;;
59189;SDS011;50749;51.636;4.948;2023-03-01T15:30:23;0.93;;;0.60;;
59189;SDS011;50749;51.636;4.948;2023-03-01T15:33:16;1.10;;;0.80;;
59189;SDS011;50749;51.636;4.948;2023-03-01T15:38:23;1.13;;;0.70;;
59189;SDS011;50749;51.636;4.948;2023-03-01T15:43:56;2.03;;;0.77;;
59189;SDS011;50749;51.636;4.948;2023-03-01T15:46:25;1.52;;;0.70;;
59189;SDS011;50749;51.636;4.948;2023-03-01T15:48:55;2.28;;;0.90;;
59189;SDS011;50749;51.636;4.948;2023-03-01T15:51:33;1.27;;;0.70;;
59189;SDS011;50749;51.636;4.948;2023-03-01T15:54:01;1.27;;;0.80;;
59189;SDS011;50749;51.636;4.948;2023-03-01T15:56:30;1.60;;;0.90;;
59189;SDS011;50749;51.636;4.948;2023-03-01T15:58:59;3.85;;;0.70;;
59189;SDS011;50749;51.636;4.948;2023-03-01T16:01:27;2.45;;;0.80;;
59189;SDS011;50749;51.636;4.948;2023-03-01T16:03:54;2.17;;;0.70;;
59189;SDS011;50749;51.636;4.948;2023-03-01T16:06:20;2.40;;;0.90;;
59189;SDS011;50749;51.636;4.948;2023-03-01T16:08:46;2.50;;;1.85;;
59189;SDS011;50749;51.636;4.948;2023-03-01T16:11:14;1.40;;;0.80;;
59189;SDS011;50749;51.636;4.948;2023-03-01T16:13:41;1.88;;;0.70;;
59189;SDS011;50749;51.636;4.948;2023-03-01T16:16:09;1.33;;;0.82;;
59189;SDS011;50749;51.636;4.948;2023-03-01T16:18:38;1.70;;;0.85;;
59189;SDS011;50749;51.636;4.948;2023-03-01T16:21:04;2.15;;;0.70;;
59189;SDS011;50749;51.636;4.948;2023-03-01T16:23:30;3.55;;;0.77;;
59189;SDS011;50749;51.636;4.948;2023-03-01T16:25:59;2.75;;;0.90;;
59189;SDS011;50749;51.636;4.948;2023-03-01T16:28:25;2.40;;;0.90;;
59189;SDS011;50749;51.636;4.948;2023-03-01T16:30:51;4.50;;;1.02;;
59189;SDS011;50749;51.636;4.948;2023-03-01T16:33:17;1.30;;;0.80;;
59189;SDS011;50749;51.636;4.948;2023-03-01T16:35:43;1.50;;;0.82;;
59189;SDS011;50749;51.636;4.948;2023-03-01T16:38:09;0.98;;;0.60;;
59189;SDS011;50749;51.636;4.948;2023-03-01T16:40:36;3.22;;;0.88;;
59189;SDS011;50749;51.636;4.948;2023-03-01T16:43:02;1.35;;;0.57;;
59189;SDS011;50749;51.636;4.948;2023-03-01T16:45:32;2.35;;;0.80;;
59189;SDS011;50749;51.636;4.948;2023-03-01T16:48:01;2.67;;;0.90;;
59189;SDS011;50749;51.636;4.948;2023-03-01T16:50:28;1.25;;;0.80;;
59189;SDS011;50749;51.636;4.948;2023-03-01T16:52:53;2.13;;;0.77;;
59189;SDS011;50749;51.636;4.948;2023-03-01T16:55:19;1.60;;;0.90;;
59189;SDS011;50749;51.636;4.948;2023-03-01T16:57:45;3.22;;;1.10;;
59189;SDS011;50749;51.636;4.948;2023-03-01T17:00:11;1.88;;;0.80;;
59189;SDS011;50749;51.636;4.948;2023-03-01T17:02:38;0.90;;;0.65;;
59189;SDS011;50749;51.636;4.948;2023-03-01T17:05:06;1.15;;;0.65;;
59189;SDS011;50749;51.636;4.948;2023-03-01T17:07:33;1.80;;;0.80;;
59189;SDS011;50749;51.636;4.948;2023-03-01T17:10:00;1.42;;;0.80;;
59189;SDS011;50749;51.636;4.948;2023-03-01T17:12:26;4.40;;;1.00;;